sensor_id;sensor_type;location;lat;lon;timestamp;pressure;altitude;pressure_sealevel;temperature;humidity
55540;BME280;41384;51.418;7.286;2022-10-16T00:01:13;99382.81;;;14.29;100.00
55540;BME280;41384;51.418;7.286;2022-10-16T00:03:40;99382.97;;;14.23;100.00
55540;BME280;41384;51.418;7.286;2022-10-16T00:06:06;99383.28;;;14.26;100.00
55540;BME280;41384;51.418;7.286;2022-10-16T00:08:33;99384.19;;;14.32;100.00
55540;BME280;41384;51.418;7.286;2022-10-16T00:11:04;99388.75;;;14.37;100.00
55540;BME280;41384;51.418;7.286;2022-10-16T00:13:30;99395.84;;;14.31;100.00
55540;BME280;41384;51.418;7.286;2022-10-16T00:15:57;99384.91;;;14.27;100.00
55540;BME280;41384;51.418;7.286;2022-10-16T00:18:23;99387.81;;;14.26;100.00
55540;BME280;41384;51.418;7.286;2022-10-16T00:20:49;99388.38;;;14.28;100.00
55540;BME280;41384;51.418;7.286;2022-10-16T00:23:14;99390.75;;;14.29;100.00
55540;BME280;41384;51.418;7.286;2022-10-16T00:25:39;99388.28;;;14.23;100.00
55540;BME280;41384;51.418;7.286;2022-10-16T00:28:04;99389.63;;;14.25;100.00
55540;BME280;41384;51.418;7.286;2022-10-16T00:30:30;99382.50;;;14.26;100.00
55540;BME280;41384;51.418;7.286;2022-10-16T00:32:55;99400.81;;;14.27;100.00
55540;BME280;41384;51.418;7.286;2022-10-16T00:35:21;99406.09;;;14.10;100.00
55540;BME280;41384;51.418;7.286;2022-10-16T00:37:46;99398.91;;;14.23;100.00
55540;BME280;41384;51.418;7.286;2022-10-16T00:40:11;99403.41;;;14.22;100.00
55540;BME280;41384;51.418;7.286;2022-10-16T00:42:37;99401.56;;;14.23;100.00
55540;BME280;41384;51.418;7.286;2022-10-16T00:45:03;99408.88;;;14.15;100.00
55540;BME280;41384;51.418;7.286;2022-10-16T00:47:34;99410.72;;;14.15;100.00
55540;BME280;41384;51.418;7.286;2022-10-16T00:50:26;99408.53;;;14.12;100.00
55540;BME280;41384;51.418;7.286;2022-10-16T00:52:49;99410.00;;;14.20;100.00
55540;BME280;41384;51.418;7.286;2022-10-16T00:55:15;99409.44;;;14.18;100.00
55540;BME280;41384;51.418;7.286;2022-10-16T00:57:41;99402.66;;;14.10;100.00
55540;BME280;41384;51.418;7.286;2022-10-16T01:00:11;99405.78;;;14.07;100.00
55540;BME280;41384;51.418;7.286;2022-10-16T01:02:37;99401.47;;;14.18;100.00
55540;BME280;41384;51.418;7.286;2022-10-16T01:05:02;99413.44;;;14.20;100.00
55540;BME280;41384;51.418;7.286;2022-10-16T01:07:40;99402.34;;;14.23;100.00
55540;BME280;41384;51.418;7.286;2022-10-16T01:13:01;99403.16;;;14.24;100.00
55540;BME280;41384;51.418;7.286;2022-10-16T01:15:52;99407.09;;;14.21;100.00
55540;BME280;41384;51.418;7.286;2022-10-16T01:18:39;99397.53;;;14.20;100.00
55540;BME280;41384;51.418;7.286;2022-10-16T01:21:11;99404.28;;;14.28;100.00
55540;BME280;41384;51.418;7.286;2022-10-16T01:32:40;99421.25;;;14.10;100.00
55540;BME280;41384;51.418;7.286;2022-10-16T01:35:47;99415.63;;;14.23;100.00
55540;BME280;41384;51.418;7.286;2022-10-16T01:38:10;99409.59;;;14.11;100.00
55540;BME280;41384;51.418;7.286;2022-10-16T01:40:39;99402.19;;;14.13;100.00
55540;BME280;41384;51.418;7.286;2022-10-16T01:43:09;99397.91;;;14.12;100.00
55540;BME280;41384;51.418;7.286;2022-10-16T01:45:36;99401.13;;;14.14;100.00
55540;BME280;41384;51.418;7.286;2022-10-16T01:48:03;99407.50;;;14.13;100.00
55540;BME280;41384;51.418;7.286;2022-10-16T01:50:33;99405.47;;;14.03;100.00
55540;BME280;41384;51.418;7.286;2022-10-16T01:53:01;99402.72;;;13.98;100.00
55540;BME280;41384;51.418;7.286;2022-10-16T01:55:34;99404.66;;;14.03;100.00
55540;BME280;41384;51.418;7.286;2022-10-16T01:58:01;99405.72;;;14.01;100.00
55540;BME280;41384;51.418;7.286;2022-10-16T02:00:29;99413.97;;;14.05;100.00
55540;BME280;41384;51.418;7.286;2022-10-16T02:02:57;99403.19;;;13.95;100.00
55540;BME280;41384;51.418;7.286;2022-10-16T02:05:30;99402.50;;;13.99;100.00
55540;BME280;41384;51.418;7.286;2022-10-16T02:07:59;99406.09;;;13.93;100.00
55540;BME280;41384;51.418;7.286;2022-10-16T02:10:24;99411.63;;;13.92;100.00
55540;BME280;41384;51.418;7.286;2022-10-16T02:13:05;99404.41;;;13.87;100.00
55540;BME280;41384;51.418;7.286;2022-10-16T02:15:31;99417.00;;;13.80;100.00
55540;BME280;41384;51.418;7.286;2022-10-16T02:17:56;99405.91;;;13.83;100.00
55540;BME280;41384;51.418;7.286;2022-10-16T02:20:25;99406.06;;;13.76;100.00
55540;BME280;41384;51.418;7.286;2022-10-16T02:22:53;99404.34;;;13.70;100.00
55540;BME280;41384;51.418;7.286;2022-10-16T02:25:25;99403.97;;;13.78;100.00
55540;BME280;41384;51.418;7.286;2022-10-16T02:28:00;99407.91;;;13.76;100.00
55540;BME280;41384;51.418;7.286;2022-10-16T02:30:49;99406.06;;;13.76;100.00
55540;BME280;41384;51.418;7.286;2022-10-16T02:33:16;99395.69;;;13.75;100.00
55540;BME280;41384;51.418;7.286;2022-10-16T02:35:45;99396.53;;;13.63;100.00
55540;BME280;41384;51.418;7.286;2022-10-16T02:38:12;99406.00;;;13.59;100.00
55540;BME280;41384;51.418;7.286;2022-10-16T02:40:38;99410.31;;;13.77;100.00
55540;BME280;41384;51.418;7.286;2022-10-16T02:43:04;99415.97;;;13.81;100.00
55540;BME280;41384;51.418;7.286;2022-10-16T02:45:30;99414.81;;;13.77;100.00
55540;BME280;41384;51.418;7.286;2022-10-16T02:47:56;99407.06;;;13.87;100.00
55540;BME280;41384;51.418;7.286;2022-10-16T02:50:21;99404.78;;;13.79;100.00
55540;BME280;41384;51.418;7.286;2022-10-16T02:52:47;99398.50;;;13.56;100.00
55540;BME280;41384;51.418;7.286;2022-10-16T02:55:13;99403.19;;;13.78;100.00
55540;BME280;41384;51.418;7.286;2022-10-16T02:57:38;99407.66;;;13.77;100.00
55540;BME280;41384;51.418;7.286;2022-10-16T03:00:06;99405.81;;;13.78;100.00
55540;BME280;41384;51.418;7.286;2022-10-16T03:02:31;99411.03;;;13.73;100.00
55540;BME280;41384;51.418;7.286;2022-10-16T03:04:57;99408.47;;;13.78;100.00
55540;BME280;41384;51.418;7.286;2022-10-16T03:07:22;99406.91;;;13.65;100.00
55540;BME280;41384;51.418;7.286;2022-10-16T03:09:47;99415.41;;;13.79;100.00
55540;BME280;41384;51.418;7.286;2022-10-16T03:12:12;99421.75;;;13.78;100.00
55540;BME280;41384;51.418;7.286;2022-10-16T03:14:38;99421.75;;;13.78;100.00
55540;BME280;41384;51.418;7.286;2022-10-16T03:17:04;99417.13;;;13.73;100.00
55540;BME280;41384;51.418;7.286;2022-10-16T03:19:30;99426.94;;;13.73;100.00
55540;BME280;41384;51.418;7.286;2022-10-16T03:21:55;99426.81;;;13.67;100.00
55540;BME280;41384;51.418;7.286;2022-10-16T03:24:20;99432.81;;;13.75;100.00
55540;BME280;41384;51.418;7.286;2022-10-16T03:26:45;99430.25;;;13.80;100.00
55540;BME280;41384;51.418;7.286;2022-10-16T03:29:11;99417.56;;;13.82;100.00
55540;BME280;41384;51.418;7.286;2022-10-16T03:31:36;99408.38;;;13.73;100.00
55540;BME280;41384;51.418;7.286;2022-10-16T03:34:01;99413.31;;;13.81;100.00
55540;BME280;41384;51.418;7.286;2022-10-16T03:36:27;99406.78;;;13.71;100.00
55540;BME280;41384;51.418;7.286;2022-10-16T03:38:52;99411.03;;;13.73;100.00
55540;BME280;41384;51.418;7.286;2022-10-16T03:41:17;99409.06;;;13.80;100.00
55540;BME280;41384;51.418;7.286;2022-10-16T03:43:43;99418.28;;;13.77;100.00
55540;BME280;41384;51.418;7.286;2022-10-16T03:46:08;99410.81;;;13.62;100.00
55540;BME280;41384;51.418;7.286;2022-10-16T03:48:33;99418.03;;;13.79;100.00
55540;BME280;41384;51.418;7.286;2022-10-16T03:50:59;99422.56;;;13.66;100.00
55540;BME280;41384;51.418;7.286;2022-10-16T03:53:24;99425.78;;;13.68;100.00
55540;BME280;41384;51.418;7.286;2022-10-16T03:55:50;99426.13;;;13.72;100.00
55540;BME280;41384;51.418;7.286;2022-10-16T03:58:15;99427.63;;;13.80;100.00
55540;BME280;41384;51.418;7.286;2022-10-16T04:00:42;99430.19;;;13.75;100.00
55540;BME280;41384;51.418;7.286;2022-10-16T04:03:07;99426.47;;;13.76;100.00
55540;BME280;41384;51.418;7.286;2022-10-16T04:05:32;99430.88;;;13.70;100.00
55540;BME280;41384;51.418;7.286;2022-10-16T04:07:57;99429.53;;;13.55;100.00
55540;BME280;41384;51.418;7.286;2022-10-16T04:10:23;99427.56;;;13.51;100.00
55540;BME280;41384;51.418;7.286;2022-10-16T04:12:48;99432.19;;;13.55;100.00
55540;BME280;41384;51.418;7.286;2022-10-16T04:15:13;99435.72;;;13.61;100.00
55540;BME280;41384;51.418;7.286;2022-10-16T04:17:38;99438.53;;;13.54;100.00
55540;BME280;41384;51.418;7.286;2022-10-16T04:20:04;99430.09;;;13.57;100.00
55540;BME280;41384;51.418;7.286;2022-10-16T04:22:30;99446.00;;;13.57;100.00
55540;BME280;41384;51.418;7.286;2022-10-16T04:24:55;99447.84;;;13.57;100.00
55540;BME280;41384;51.418;7.286;2022-10-16T04:27:20;99452.56;;;13.55;100.00
55540;BME280;41384;51.418;7.286;2022-10-16T04:29:45;99445.06;;;13.64;100.00
55540;BME280;41384;51.418;7.286;2022-10-16T04:32:13;99450.66;;;13.50;100.00
55540;BME280;41384;51.418;7.286;2022-10-16T04:34:39;99445.81;;;13.47;100.00
55540;BME280;41384;51.418;7.286;2022-10-16T04:37:05;99455.22;;;13.55;100.00
55540;BME280;41384;51.418;7.286;2022-10-16T04:39:30;99469.78;;;13.52;100.00
55540;BME280;41384;51.418;7.286;2022-10-16T04:41:55;99460.44;;;13.50;100.00
55540;BME280;41384;51.418;7.286;2022-10-16T04:44:21;99471.84;;;13.38;100.00
55540;BME280;41384;51.418;7.286;2022-10-16T04:46:46;99471.50;;;13.47;100.00
55540;BME280;41384;51.418;7.286;2022-10-16T04:49:11;99469.44;;;13.49;100.00
55540;BME280;41384;51.418;7.286;2022-10-16T04:51:36;99477.38;;;13.49;100.00
55540;BME280;41384;51.418;7.286;2022-10-16T04:54:02;99472.19;;;13.54;100.00
55540;BME280;41384;51.418;7.286;2022-10-16T04:56:27;99468.03;;;13.34;100.00
55540;BME280;41384;51.418;7.286;2022-10-16T04:58:52;99463.56;;;13.47;100.00
55540;BME280;41384;51.418;7.286;2022-10-16T05:01:18;99459.16;;;13.52;100.00
55540;BME280;41384;51.418;7.286;2022-10-16T05:03:43;99470.94;;;13.45;100.00
55540;BME280;41384;51.418;7.286;2022-10-16T05:06:08;99474.63;;;13.43;100.00
55540;BME280;41384;51.418;7.286;2022-10-16T05:08:34;99488.53;;;13.63;100.00
55540;BME280;41384;51.418;7.286;2022-10-16T05:10:59;99486.72;;;13.51;100.00
55540;BME280;41384;51.418;7.286;2022-10-16T05:13:25;99499.41;;;13.49;100.00
55540;BME280;41384;51.418;7.286;2022-10-16T05:15:53;99509.19;;;13.49;100.00
55540;BME280;41384;51.418;7.286;2022-10-16T05:18:18;99495.47;;;13.52;100.00
55540;BME280;41384;51.418;7.286;2022-10-16T05:20:43;99500.66;;;13.47;100.00
55540;BME280;41384;51.418;7.286;2022-10-16T05:23:09;99503.00;;;13.43;100.00
55540;BME280;41384;51.418;7.286;2022-10-16T05:25:37;99510.78;;;13.62;100.00
55540;BME280;41384;51.418;7.286;2022-10-16T05:28:03;99512.53;;;13.56;100.00
55540;BME280;41384;51.418;7.286;2022-10-16T05:30:28;99518.53;;;13.51;100.00
55540;BME280;41384;51.418;7.286;2022-10-16T05:32:54;99520.72;;;13.54;100.00
55540;BME280;41384;51.418;7.286;2022-10-16T05:35:20;99515.66;;;13.53;100.00
55540;BME280;41384;51.418;7.286;2022-10-16T05:37:46;99517.16;;;13.49;100.00
55540;BME280;41384;51.418;7.286;2022-10-16T05:40:12;99514.97;;;13.57;100.00
55540;BME280;41384;51.418;7.286;2022-10-16T05:42:56;99526.03;;;13.54;100.00
55540;BME280;41384;51.418;7.286;2022-10-16T05:45:27;99526.13;;;13.48;100.00
55540;BME280;41384;51.418;7.286;2022-10-16T05:48:15;99515.06;;;13.51;100.00
55540;BME280;41384;51.418;7.286;2022-10-16T05:51:18;99517.59;;;13.57;100.00
55540;BME280;41384;51.418;7.286;2022-10-16T05:53:43;99520.94;;;13.53;100.00
55540;BME280;41384;51.418;7.286;2022-10-16T06:02:05;99543.97;;;13.40;100.00
55540;BME280;41384;51.418;7.286;2022-10-16T06:04:30;99552.66;;;13.48;100.00
55540;BME280;41384;51.418;7.286;2022-10-16T06:06:58;99554.50;;;13.47;100.00
55540;BME280;41384;51.418;7.286;2022-10-16T06:09:25;99552.66;;;13.48;100.00
55540;BME280;41384;51.418;7.286;2022-10-16T06:11:50;99556.09;;;13.36;100.00
55540;BME280;41384;51.418;7.286;2022-10-16T06:14:16;99559.56;;;13.49;100.00
55540;BME280;41384;51.418;7.286;2022-10-16T06:16:41;99567.53;;;13.49;100.00
55540;BME280;41384;51.418;7.286;2022-10-16T06:19:06;99571.22;;;13.48;100.00
55540;BME280;41384;51.418;7.286;2022-10-16T06:21:33;99576.16;;;13.56;100.00
55540;BME280;41384;51.418;7.286;2022-10-16T06:23:58;99583.06;;;13.57;100.00
55540;BME280;41384;51.418;7.286;2022-10-16T06:26:31;99583.53;;;13.54;100.00
55540;BME280;41384;51.418;7.286;2022-10-16T06:28:58;99582.03;;;13.58;100.00
55540;BME280;41384;51.418;7.286;2022-10-16T06:31:24;99584.81;;;13.63;100.00
55540;BME280;41384;51.418;7.286;2022-10-16T06:33:55;99589.88;;;13.53;100.00
55540;BME280;41384;51.418;7.286;2022-10-16T06:36:21;99578.25;;;13.54;100.00
55540;BME280;41384;51.418;7.286;2022-10-16T06:38:47;99582.41;;;13.50;100.00
55540;BME280;41384;51.418;7.286;2022-10-16T06:41:15;99594.41;;;13.52;100.00
55540;BME280;41384;51.418;7.286;2022-10-16T06:43:41;99592.66;;;13.58;100.00
55540;BME280;41384;51.418;7.286;2022-10-16T06:46:09;99604.41;;;13.62;100.00
55540;BME280;41384;51.418;7.286;2022-10-16T06:48:35;99603.38;;;13.63;100.00
55540;BME280;41384;51.418;7.286;2022-10-16T06:51:03;99604.88;;;13.71;100.00
55540;BME280;41384;51.418;7.286;2022-10-16T06:53:32;99611.56;;;13.74;100.00
55540;BME280;41384;51.418;7.286;2022-10-16T06:56:08;99605.81;;;13.77;100.00
55540;BME280;41384;51.418;7.286;2022-10-16T06:58:34;99616.75;;;13.68;100.00
55540;BME280;41384;51.418;7.286;2022-10-16T07:00:59;99621.81;;;13.70;100.00
55540;BME280;41384;51.418;7.286;2022-10-16T07:03:24;99632.91;;;13.67;100.00
55540;BME280;41384;51.418;7.286;2022-10-16T07:05:49;99642.00;;;13.83;100.00
55540;BME280;41384;51.418;7.286;2022-10-16T07:08:15;99639.22;;;13.90;100.00
55540;BME280;41384;51.418;7.286;2022-10-16T07:10:40;99646.97;;;13.91;100.00
55540;BME280;41384;51.418;7.286;2022-10-16T07:13:05;99659.88;;;13.88;100.00
55540;BME280;41384;51.418;7.286;2022-10-16T07:15:32;99658.00;;;14.00;100.00
55540;BME280;41384;51.418;7.286;2022-10-16T07:17:58;99664.03;;;13.95;100.00
55540;BME280;41384;51.418;7.286;2022-10-16T07:20:23;99665.41;;;13.98;100.00
55540;BME280;41384;51.418;7.286;2022-10-16T07:22:48;99666.09;;;14.05;100.00
55540;BME280;41384;51.418;7.286;2022-10-16T07:25:14;99666.78;;;14.00;100.00
55540;BME280;41384;51.418;7.286;2022-10-16T07:27:39;99675.31;;;14.03;100.00
55540;BME280;41384;51.418;7.286;2022-10-16T07:30:05;99678.19;;;14.01;100.00
55540;BME280;41384;51.418;7.286;2022-10-16T07:32:31;99676.47;;;13.95;100.00
55540;BME280;41384;51.418;7.286;2022-10-16T07:34:56;99688.72;;;14.08;100.00
55540;BME280;41384;51.418;7.286;2022-10-16T07:37:21;99684.09;;;14.03;100.00
55540;BME280;41384;51.418;7.286;2022-10-16T07:39:47;99688.72;;;14.08;100.00
55540;BME280;41384;51.418;7.286;2022-10-16T07:42:12;99685.38;;;14.00;100.00
55540;BME280;41384;51.418;7.286;2022-10-16T07:44:38;99685.84;;;13.97;100.00
55540;BME280;41384;51.418;7.286;2022-10-16T07:47:03;99685.38;;;14.00;100.00
55540;BME280;41384;51.418;7.286;2022-10-16T07:49:28;99690.78;;;14.06;100.00
55540;BME280;41384;51.418;7.286;2022-10-16T07:51:53;99694.47;;;14.17;100.00
55540;BME280;41384;51.418;7.286;2022-10-16T07:54:19;99704.28;;;14.28;100.00
55540;BME280;41384;51.418;7.286;2022-10-16T07:56:44;99712.56;;;14.32;100.00
55540;BME280;41384;51.418;7.286;2022-10-16T07:59:09;99717.41;;;14.35;100.00
55540;BME280;41384;51.418;7.286;2022-10-16T08:01:35;99716.13;;;14.37;100.00
55540;BME280;41384;51.418;7.286;2022-10-16T08:04:00;99715.78;;;14.45;100.00
55540;BME280;41384;51.418;7.286;2022-10-16T08:06:25;99719.31;;;14.51;100.00
55540;BME280;41384;51.418;7.286;2022-10-16T08:08:51;99732.13;;;14.54;100.00
55540;BME280;41384;51.418;7.286;2022-10-16T08:11:16;99731.91;;;14.56;100.00
55540;BME280;41384;51.418;7.286;2022-10-16T08:13:42;99739.53;;;14.64;100.00
55540;BME280;41384;51.418;7.286;2022-10-16T08:16:08;99729.00;;;14.57;100.00
55540;BME280;41384;51.418;7.286;2022-10-16T08:18:35;99729.25;;;14.56;100.00
55540;BME280;41384;51.418;7.286;2022-10-16T08:21:36;99741.25;;;14.82;100.00
55540;BME280;41384;51.418;7.286;2022-10-16T08:24:01;99748.75;;;14.73;100.00
55540;BME280;41384;51.418;7.286;2022-10-16T08:26:47;99763.66;;;14.74;100.00
55540;BME280;41384;51.418;7.286;2022-10-16T08:29:13;99759.84;;;14.82;100.00
55540;BME280;41384;51.418;7.286;2022-10-16T08:31:38;99760.31;;;14.79;100.00
55540;BME280;41384;51.418;7.286;2022-10-16T08:34:04;99767.34;;;14.85;100.00
55540;BME280;41384;51.418;7.286;2022-10-16T08:36:29;99774.13;;;14.93;100.00
55540;BME280;41384;51.418;7.286;2022-10-16T08:38:55;99775.31;;;14.85;100.00
55540;BME280;41384;51.418;7.286;2022-10-16T08:42:21;99776.19;;;14.91;100.00
55540;BME280;41384;51.418;7.286;2022-10-16T08:47:20;99789.47;;;15.03;100.00
55540;BME280;41384;51.418;7.286;2022-10-16T08:49:56;99789.56;;;15.08;100.00
55540;BME280;41384;51.418;7.286;2022-10-16T08:52:29;99784.44;;;15.18;99.08
55540;BME280;41384;51.418;7.286;2022-10-16T08:54:56;99802.56;;;15.22;98.23
55540;BME280;41384;51.418;7.286;2022-10-16T08:57:22;99791.81;;;15.28;97.42
55540;BME280;41384;51.418;7.286;2022-10-16T08:59:49;99793.16;;;15.31;97.22
55540;BME280;41384;51.418;7.286;2022-10-16T09:02:35;99794.31;;;15.35;95.86
55540;BME280;41384;51.418;7.286;2022-10-16T09:07:48;99799.66;;;15.52;96.18
55540;BME280;41384;51.418;7.286;2022-10-16T09:10:47;99810.56;;;15.51;94.88
55540;BME280;41384;51.418;7.286;2022-10-16T09:13:27;99810.00;;;15.49;93.88
55540;BME280;41384;51.418;7.286;2022-10-16T09:16:18;99823.59;;;15.52;94.10
55540;BME280;41384;51.418;7.286;2022-10-16T09:18:55;99820.91;;;15.64;94.34
55540;BME280;41384;51.418;7.286;2022-10-16T09:21:32;99828.72;;;15.71;95.96
55540;BME280;41384;51.418;7.286;2022-10-16T09:24:12;99831.38;;;15.71;95.34
55540;BME280;41384;51.418;7.286;2022-10-16T09:26:38;99833.72;;;15.84;94.00
55540;BME280;41384;51.418;7.286;2022-10-16T09:29:03;99830.28;;;15.84;93.36
55540;BME280;41384;51.418;7.286;2022-10-16T09:31:28;99836.16;;;15.86;91.24
55540;BME280;41384;51.418;7.286;2022-10-16T09:33:58;99838.00;;;15.85;93.13
55540;BME280;41384;51.418;7.286;2022-10-16T09:36:26;99848.53;;;15.92;92.25
55540;BME280;41384;51.418;7.286;2022-10-16T09:39:11;99852.41;;;16.01;91.82
55540;BME280;41384;51.418;7.286;2022-10-16T09:41:39;99850.31;;;16.03;90.40
55540;BME280;41384;51.418;7.286;2022-10-16T09:44:18;99844.13;;;15.98;90.64
55540;BME280;41384;51.418;7.286;2022-10-16T09:46:44;99858.00;;;16.00;90.27
55540;BME280;41384;51.418;7.286;2022-10-16T09:49:24;99852.19;;;16.03;90.22
55540;BME280;41384;51.418;7.286;2022-10-16T09:51:51;99845.91;;;16.09;89.97
55540;BME280;41384;51.418;7.286;2022-10-16T09:54:27;99851.94;;;16.22;89.33
55540;BME280;41384;51.418;7.286;2022-10-16T09:57:04;99859.59;;;16.18;88.14
55540;BME280;41384;51.418;7.286;2022-10-16T09:59:31;99853.69;;;16.16;88.65
55540;BME280;41384;51.418;7.286;2022-10-16T10:02:36;99857.91;;;16.29;86.92
55540;BME280;41384;51.418;7.286;2022-10-16T10:05:26;99849.75;;;16.36;87.30
55540;BME280;41384;51.418;7.286;2022-10-16T10:07:55;99852.88;;;16.32;86.46
55540;BME280;41384;51.418;7.286;2022-10-16T10:10:27;99851.53;;;16.47;85.76
55540;BME280;41384;51.418;7.286;2022-10-16T10:12:54;99852.66;;;16.51;87.16
55540;BME280;41384;51.418;7.286;2022-10-16T10:15:21;99854.25;;;16.52;88.47
55540;BME280;41384;51.418;7.286;2022-10-16T10:17:51;99863.22;;;16.46;88.39
55540;BME280;41384;51.418;7.286;2022-10-16T10:20:34;99865.91;;;16.46;85.78
55540;BME280;41384;51.418;7.286;2022-10-16T10:23:00;99867.03;;;16.50;85.02
55540;BME280;41384;51.418;7.286;2022-10-16T10:25:44;99865.78;;;16.58;84.95
55540;BME280;41384;51.418;7.286;2022-10-16T10:28:27;99869.28;;;16.41;82.83
55540;BME280;41384;51.418;7.286;2022-10-16T10:31:03;99868.78;;;16.44;85.16
55540;BME280;41384;51.418;7.286;2022-10-16T10:33:58;99862.91;;;16.42;85.66
55540;BME280;41384;51.418;7.286;2022-10-16T10:36:39;99866.88;;;16.40;83.39
55540;BME280;41384;51.418;7.286;2022-10-16T10:39:22;99868.16;;;16.37;82.22
55540;BME280;41384;51.418;7.286;2022-10-16T10:48:12;99868.59;;;16.68;81.53
55540;BME280;41384;51.418;7.286;2022-10-16T10:50:46;99873.75;;;16.75;80.20
55540;BME280;41384;51.418;7.286;2022-10-16T11:01:46;99876.22;;;16.99;79.53
55540;BME280;41384;51.418;7.286;2022-10-16T11:07:32;99878.16;;;17.03;77.91
55540;BME280;41384;51.418;7.286;2022-10-16T11:10:20;99876.41;;;17.14;76.68
55540;BME280;41384;51.418;7.286;2022-10-16T11:12:51;99869.03;;;17.21;75.70
55540;BME280;41384;51.418;7.286;2022-10-16T11:15:31;99879.22;;;17.25;74.04
55540;BME280;41384;51.418;7.286;2022-10-16T11:20:34;99880.00;;;17.25;74.46
55540;BME280;41384;51.418;7.286;2022-10-16T11:23:18;99880.06;;;17.30;75.35
55540;BME280;41384;51.418;7.286;2022-10-16T11:25:46;99891.00;;;17.29;73.83
55540;BME280;41384;51.418;7.286;2022-10-16T11:28:16;99883.50;;;17.26;76.10
55540;BME280;41384;51.418;7.286;2022-10-16T11:31:17;99884.50;;;17.47;74.74
55540;BME280;41384;51.418;7.286;2022-10-16T11:34:12;99887.78;;;17.27;75.18
55540;BME280;41384;51.418;7.286;2022-10-16T11:40:39;99884.63;;;17.30;76.03
55540;BME280;41384;51.418;7.286;2022-10-16T11:46:48;99889.91;;;17.52;76.79
55540;BME280;41384;51.418;7.286;2022-10-16T11:56:36;99885.56;;;17.46;75.21
55540;BME280;41384;51.418;7.286;2022-10-16T12:02:37;99881.41;;;17.55;73.38
55540;BME280;41384;51.418;7.286;2022-10-16T12:08:34;99898.28;;;17.61;73.41
55540;BME280;41384;51.418;7.286;2022-10-16T12:13:48;99901.28;;;17.42;74.41
55540;BME280;41384;51.418;7.286;2022-10-16T12:18:46;99908.91;;;17.33;74.68
55540;BME280;41384;51.418;7.286;2022-10-16T12:21:13;99914.63;;;17.42;73.75
55540;BME280;41384;51.418;7.286;2022-10-16T12:26:14;99910.97;;;17.26;74.06
55540;BME280;41384;51.418;7.286;2022-10-16T12:28:48;99913.31;;;17.23;75.33
55540;BME280;41384;51.418;7.286;2022-10-16T12:31:16;99909.28;;;17.20;74.45
55540;BME280;41384;51.418;7.286;2022-10-16T12:34:01;99915.41;;;17.20;75.11
55540;BME280;41384;51.418;7.286;2022-10-16T12:36:34;99916.06;;;17.28;74.56
55540;BME280;41384;51.418;7.286;2022-10-16T12:39:00;99921.97;;;17.30;73.93
55540;BME280;41384;51.418;7.286;2022-10-16T12:41:28;99922.06;;;17.40;73.57
55540;BME280;41384;51.418;7.286;2022-10-16T12:43:55;99909.47;;;17.35;73.15
55540;BME280;41384;51.418;7.286;2022-10-16T12:46:24;99912.47;;;17.39;74.36
55540;BME280;41384;51.418;7.286;2022-10-16T12:48:49;99922.53;;;17.59;73.38
55540;BME280;41384;51.418;7.286;2022-10-16T12:51:25;99921.94;;;17.52;73.81
55540;BME280;41384;51.418;7.286;2022-10-16T12:54:13;99921.13;;;17.52;74.11
55540;BME280;41384;51.418;7.286;2022-10-16T12:56:55;99917.53;;;17.41;72.39
55540;BME280;41384;51.418;7.286;2022-10-16T13:02:30;99920.81;;;17.48;73.63
55540;BME280;41384;51.418;7.286;2022-10-16T13:08:12;99931.50;;;17.48;73.81
55540;BME280;41384;51.418;7.286;2022-10-16T13:10:53;99922.53;;;17.59;72.73
55540;BME280;41384;51.418;7.286;2022-10-16T13:13:44;99928.47;;;17.39;74.30
55540;BME280;41384;51.418;7.286;2022-10-16T13:19:24;99922.13;;;17.45;74.78
55540;BME280;41384;51.418;7.286;2022-10-16T13:25:02;99925.53;;;17.63;72.86
55540;BME280;41384;51.418;7.286;2022-10-16T13:27:54;99921.44;;;17.83;71.99
55540;BME280;41384;51.418;7.286;2022-10-16T13:30:23;99921.84;;;17.69;73.11
55540;BME280;41384;51.418;7.286;2022-10-16T13:32:52;99929.91;;;17.74;72.01
55540;BME280;41384;51.418;7.286;2022-10-16T13:35:46;99927.25;;;17.52;73.13
55540;BME280;41384;51.418;7.286;2022-10-16T13:38:15;99934.72;;;17.50;73.46
55540;BME280;41384;51.418;7.286;2022-10-16T13:41:01;99941.94;;;17.49;73.58
55540;BME280;41384;51.418;7.286;2022-10-16T13:43:47;99945.47;;;17.83;71.14
55540;BME280;41384;51.418;7.286;2022-10-16T13:46:18;99948.59;;;17.74;73.31
55540;BME280;41384;51.418;7.286;2022-10-16T13:48:44;99936.06;;;17.75;72.15
55540;BME280;41384;51.418;7.286;2022-10-16T13:51:20;99942.28;;;17.58;73.90
55540;BME280;41384;51.418;7.286;2022-10-16T13:53:46;99949.53;;;17.63;74.97
55540;BME280;41384;51.418;7.286;2022-10-16T13:56:17;99947.31;;;17.77;73.44
55540;BME280;41384;51.418;7.286;2022-10-16T13:58:43;99944.50;;;17.67;73.95
55540;BME280;41384;51.418;7.286;2022-10-16T14:01:25;99943.56;;;17.78;74.09
55540;BME280;41384;51.418;7.286;2022-10-16T14:03:53;99942.09;;;17.65;76.01
55540;BME280;41384;51.418;7.286;2022-10-16T14:06:25;99934.66;;;17.45;75.21
55540;BME280;41384;51.418;7.286;2022-10-16T14:08:59;99927.75;;;17.71;75.63
55540;BME280;41384;51.418;7.286;2022-10-16T14:11:26;99930.44;;;17.49;75.55
55540;BME280;41384;51.418;7.286;2022-10-16T14:13:51;99932.19;;;17.38;76.80
55540;BME280;41384;51.418;7.286;2022-10-16T14:16:20;99937.41;;;17.28;75.32
55540;BME280;41384;51.418;7.286;2022-10-16T14:18:48;99943.88;;;17.59;73.81
55540;BME280;41384;51.418;7.286;2022-10-16T14:21:16;99937.44;;;17.55;76.04
55540;BME280;41384;51.418;7.286;2022-10-16T14:23:42;99939.75;;;17.46;75.43
55540;BME280;41384;51.418;7.286;2022-10-16T14:28:34;99954.31;;;17.61;76.29
55540;BME280;41384;51.418;7.286;2022-10-16T14:31:00;99956.25;;;17.43;76.40
55540;BME280;41384;51.418;7.286;2022-10-16T14:36:06;99963.78;;;17.46;77.48
55540;BME280;41384;51.418;7.286;2022-10-16T14:38:41;99966.09;;;17.20;77.61